createdAt,value
2022-10-09T00:43:40.746Z,0.77
2022-10-09T00:46:16.371Z,0.65
2022-10-09T00:48:46.659Z,0.63
2022-10-09T00:51:17.013Z,0.98
2022-10-09T00:53:47.467Z,0.80
2022-10-09T00:56:17.408Z,0.77
2022-10-09T00:58:48.108Z,0.80
2022-10-09T01:01:18.052Z,0.65
2022-10-09T01:03:48.519Z,0.73
2022-10-09T01:06:18.408Z,0.93
2022-10-09T01:08:55.670Z,0.85
2022-10-09T01:11:25.571Z,1.05
2022-10-09T01:14:04.244Z,0.80
2022-10-09T01:16:41.004Z,0.70
2022-10-09T01:19:20.715Z,0.80
2022-10-09T01:22:01.004Z,0.77
2022-10-09T01:24:41.094Z,1.65
2022-10-09T01:27:18.053Z,0.80
2022-10-09T01:29:56.725Z,1.00
2022-10-09T01:32:29.052Z,0.90
2022-10-09T01:34:59.672Z,0.88
2022-10-09T01:37:30.742Z,0.80
2022-10-09T01:40:01.179Z,0.85
2022-10-09T01:42:32.215Z,0.70
2022-10-09T01:45:02.300Z,0.77
2022-10-09T01:47:32.624Z,0.70
2022-10-09T01:50:08.869Z,1.10
2022-10-09T01:52:46.099Z,0.77
2022-10-09T01:55:35.385Z,0.90
2022-10-09T01:58:24.037Z,0.82
2022-10-09T02:01:05.582Z,1.00
2022-10-09T02:03:36.782Z,1.02
2022-10-09T02:06:11.876Z,0.98
2022-10-09T02:08:42.399Z,1.10
2022-10-09T02:11:16.496Z,1.15
2022-10-09T02:13:47.866Z,1.00
2022-10-09T02:16:37.370Z,0.90
2022-10-09T02:19:26.980Z,0.70
2022-10-09T02:22:08.506Z,0.80
2022-10-09T02:24:40.840Z,0.70
2022-10-09T02:27:11.498Z,0.73
2022-10-09T02:29:42.890Z,0.80
2022-10-09T02:32:13.158Z,0.80
2022-10-09T02:34:43.463Z,0.80
2022-10-09T02:37:13.659Z,0.80
2022-10-09T02:39:45.300Z,0.70
2022-10-09T02:42:15.195Z,0.90
2022-10-09T02:44:45.173Z,0.98
2022-10-09T02:47:15.472Z,0.80
2022-10-09T02:49:46.365Z,0.70
2022-10-09T02:52:16.288Z,0.90
2022-10-09T02:54:46.206Z,1.08
2022-10-09T02:57:16.119Z,0.80
2022-10-09T02:59:46.056Z,0.90
2022-10-09T03:02:16.071Z,0.80
2022-10-09T03:04:46.128Z,0.85
2022-10-09T03:07:17.286Z,0.95
2022-10-09T03:09:47.212Z,0.90
2022-10-09T03:12:22.740Z,0.70
2022-10-09T03:14:52.685Z,1.00
2022-10-09T03:17:22.568Z,1.00
2022-10-09T03:19:52.595Z,1.00
2022-10-09T03:22:22.691Z,0.80
2022-10-09T03:24:52.601Z,0.77
2022-10-09T03:27:22.613Z,0.70
2022-10-09T03:29:52.526Z,0.80
2022-10-09T03:32:22.656Z,0.70
2022-10-09T03:34:52.676Z,0.80
2022-10-09T03:37:22.733Z,1.10
2022-10-09T03:39:53.724Z,0.90
2022-10-09T03:42:23.779Z,0.95
2022-10-09T03:44:53.749Z,0.85
2022-10-09T03:47:23.672Z,0.90
2022-10-09T03:49:53.583Z,1.30
2022-10-09T03:52:23.500Z,0.93
2022-10-09T03:54:53.894Z,1.00
2022-10-09T03:57:23.807Z,1.08
2022-10-09T03:59:54.131Z,1.00
2022-10-09T04:02:25.213Z,1.05
2022-10-09T04:04:56.350Z,1.02
2022-10-09T04:07:26.255Z,0.82
2022-10-09T04:09:56.339Z,0.85
2022-10-09T04:12:26.308Z,1.13
2022-10-09T04:14:56.196Z,1.00
2022-10-09T04:17:26.110Z,1.00
2022-10-09T04:19:55.976Z,0.80
2022-10-09T04:22:25.872Z,0.90
2022-10-09T04:24:55.919Z,0.98
2022-10-09T04:27:26.056Z,0.80
2022-10-09T04:29:57.166Z,1.08
2022-10-09T04:32:27.131Z,0.80
2022-10-09T04:34:58.052Z,1.33
2022-10-09T04:37:27.946Z,1.05
2022-10-09T04:39:58.196Z,1.15
2022-10-09T04:42:28.174Z,0.88
2022-10-09T04:44:58.093Z,1.33
2022-10-09T04:47:28.088Z,0.90
2022-10-09T04:49:58.351Z,0.68
2022-10-09T04:52:28.910Z,0.70
2022-10-09T04:54:59.122Z,0.80
2022-10-09T04:57:29.468Z,0.73
2022-10-09T04:59:59.590Z,0.70
2022-10-09T05:02:29.782Z,0.90
2022-10-09T05:04:59.937Z,0.90
2022-10-09T05:07:30.225Z,1.08
2022-10-09T05:10:00.313Z,0.80
2022-10-09T05:12:30.486Z,0.80
2022-10-09T05:15:00.544Z,0.90
2022-10-09T05:17:30.510Z,0.65
2022-10-09T05:20:00.435Z,0.80
2022-10-09T05:22:30.368Z,0.70
2022-10-09T05:25:00.243Z,0.60
2022-10-09T05:27:30.185Z,0.60
2022-10-09T05:30:00.439Z,0.80
2022-10-09T05:32:30.310Z,0.80
2022-10-09T05:35:00.160Z,0.80
2022-10-09T05:37:30.114Z,0.80
2022-10-09T05:40:12.938Z,0.90
2022-10-09T05:42:43.909Z,0.70
2022-10-09T05:45:14.977Z,0.82
2022-10-09T05:47:44.910Z,0.70
2022-10-09T05:50:14.913Z,0.80
2022-10-09T05:52:44.814Z,0.90
2022-10-09T05:56:07.962Z,0.80
2022-10-09T05:59:00.965Z,0.70
2022-10-09T06:08:26.847Z,0.80
2022-10-09T07:21:56.037Z,1.00
2022-10-09T07:24:27.002Z,0.90
2022-10-09T07:27:00.413Z,1.10
2022-10-09T07:29:30.293Z,1.13
2022-10-09T07:32:00.257Z,1.30
2022-10-09T07:34:30.896Z,1.00
2022-10-09T07:37:00.801Z,1.00
2022-10-09T07:39:32.117Z,0.90
2022-10-09T07:42:29.223Z,0.90
2022-10-09T07:48:16.690Z,1.10
2022-10-09T07:50:48.172Z,0.80
2022-10-09T07:53:18.346Z,1.00
2022-10-09T07:55:55.911Z,0.80
2022-10-09T07:58:26.221Z,0.90
2022-10-09T08:00:56.333Z,1.10
2022-10-09T08:03:32.919Z,0.93
2022-10-09T08:06:12.621Z,1.00
2022-10-09T08:08:49.933Z,1.00
2022-10-09T08:11:23.837Z,1.23
2022-10-09T08:14:24.771Z,0.90
2022-10-09T08:17:00.576Z,1.10
2022-10-09T08:52:02.534Z,1.55
2022-10-09T08:54:40.634Z,1.48
2022-10-09T08:58:15.495Z,1.50
2022-10-09T09:00:52.734Z,1.50
2022-10-09T09:03:53.291Z,1.48
2022-10-09T09:06:41.208Z,2.00
2022-10-09T09:09:26.525Z,2.20
2022-10-09T09:12:14.724Z,2.15
2022-10-09T09:14:47.695Z,2.33
2022-10-09T09:17:40.454Z,2.10
2022-10-09T09:20:41.233Z,2.10
2022-10-09T09:23:15.935Z,2.00
2022-10-09T09:25:48.900Z,2.45
2022-10-09T09:28:23.133Z,2.30
2022-10-09T09:31:25.542Z,2.65
2022-10-09T09:33:55.764Z,2.55
2022-10-09T09:53:03.613Z,4.05
2022-10-09T09:55:34.331Z,3.95
2022-10-09T10:01:59.241Z,3.60
2022-10-09T10:04:31.984Z,3.13
2022-10-09T10:07:02.654Z,3.00
2022-10-09T10:09:33.896Z,3.20
2022-10-09T10:12:08.183Z,2.80
2022-10-09T10:14:38.560Z,3.03
2022-10-09T10:17:08.915Z,2.92
2022-10-09T10:19:40.395Z,3.00
2022-10-09T10:22:24.617Z,2.80
2022-10-09T10:24:55.863Z,2.40
2022-10-09T10:27:46.328Z,2.88
2022-10-09T10:30:18.691Z,3.00
2022-10-09T10:32:54.533Z,2.75
2022-10-09T10:35:26.745Z,3.30
2022-10-09T10:37:59.665Z,3.03
2022-10-09T10:40:40.738Z,2.55
2022-10-09T10:43:11.879Z,2.38
2022-10-09T10:45:55.503Z,2.53
2022-10-09T10:48:30.839Z,2.55
2022-10-09T10:54:01.466Z,2.58
2022-10-09T10:56:36.785Z,2.42
2022-10-09T10:59:07.565Z,2.53
2022-10-09T11:01:37.991Z,3.17
2022-10-09T11:04:13.902Z,2.42
2022-10-09T11:06:43.788Z,2.60
2022-10-09T12:25:06.637Z,1.30
2022-10-09T12:27:42.076Z,1.10
2022-10-09T12:30:15.934Z,1.38
2022-10-09T12:32:49.101Z,1.00
2022-10-09T12:35:28.406Z,0.80
2022-10-09T12:38:00.280Z,1.02
2022-10-09T12:40:32.670Z,0.90
2022-10-09T12:43:09.553Z,0.90
2022-10-09T12:45:45.239Z,1.02
2022-10-09T12:48:16.648Z,0.82
2022-10-09T12:50:47.658Z,0.80
2022-10-09T12:53:22.520Z,0.68
2022-10-09T12:56:04.959Z,0.95
2022-10-09T12:58:41.421Z,0.60
2022-10-09T13:01:15.697Z,0.50
2022-10-09T13:03:47.152Z,0.50
2022-10-09T13:06:21.362Z,0.45
2022-10-09T13:08:56.641Z,0.40
2022-10-09T13:11:42.038Z,0.57
2022-10-09T13:14:31.920Z,0.50
2022-10-09T13:17:03.007Z,0.50
2022-10-09T13:19:34.534Z,0.43
2022-10-09T13:22:10.736Z,0.63
2022-10-09T13:24:40.660Z,0.50
2022-10-09T13:27:13.707Z,0.70
2022-10-09T13:29:46.382Z,0.60
2022-10-09T13:32:30.346Z,0.60
2022-10-09T13:35:00.433Z,0.50
2022-10-09T13:37:31.138Z,0.40
2022-10-09T13:40:02.376Z,0.50
2022-10-09T13:42:38.618Z,0.50
2022-10-09T13:45:09.957Z,0.55
2022-10-09T13:47:40.167Z,0.50
2022-10-09T13:50:10.190Z,0.60
2022-10-09T19:31:00.301Z,0.50
2022-10-09T19:33:30.222Z,0.80
2022-10-09T19:36:00.556Z,0.85
2022-10-09T19:38:30.700Z,0.63
2022-10-09T19:41:10.745Z,0.70
2022-10-09T19:43:41.371Z,0.73
2022-10-09T19:46:14.219Z,0.68
2022-10-09T19:48:44.095Z,0.90
2022-10-09T19:51:15.467Z,0.70
2022-10-09T19:53:45.407Z,1.23
2022-10-09T19:56:22.704Z,0.80
2022-10-09T19:58:53.215Z,0.63
2022-10-09T20:01:24.559Z,0.60
2022-10-09T20:04:01.052Z,0.75
2022-10-09T20:06:31.225Z,0.70
2022-10-09T20:09:01.695Z,1.05
2022-10-09T20:11:31.708Z,0.80
2022-10-09T20:14:01.633Z,0.60
2022-10-09T20:16:33.700Z,0.70
2022-10-09T20:19:05.361Z,0.90
2022-10-09T20:21:35.992Z,0.68
2022-10-09T20:24:05.883Z,0.95
2022-10-09T20:26:40.889Z,0.65
2022-10-09T20:29:12.241Z,0.90
2022-10-09T20:31:42.670Z,0.60
2022-10-09T20:34:12.767Z,0.73
2022-10-09T20:36:42.678Z,0.73
2022-10-09T20:39:15.166Z,0.65
2022-10-09T20:41:45.855Z,0.80
2022-10-09T20:44:16.204Z,0.70
2022-10-09T20:46:46.069Z,0.60
2022-10-09T20:49:16.860Z,1.92
2022-10-09T20:51:47.239Z,0.70
2022-10-09T20:54:21.083Z,0.77
2022-10-09T20:56:51.445Z,0.60
2022-10-09T20:59:22.038Z,0.80
2022-10-09T21:01:51.942Z,0.70
2022-10-09T21:04:22.236Z,0.75
2022-10-09T21:06:53.326Z,0.70
2022-10-09T21:09:26.605Z,0.70
2022-10-09T21:11:58.513Z,0.80
2022-10-09T21:14:29.641Z,0.82
2022-10-09T21:16:59.591Z,0.85
2022-10-09T21:19:29.529Z,0.90
2022-10-09T21:21:59.476Z,0.90
2022-10-09T21:24:29.867Z,0.90
2022-10-09T21:27:00.204Z,0.70
2022-10-09T21:29:30.231Z,0.95
2022-10-09T21:32:00.497Z,0.93
2022-10-09T21:34:30.806Z,0.77
2022-10-09T21:39:51.193Z,0.85
2022-10-09T21:42:21.097Z,0.80
2022-10-09T21:44:51.378Z,0.77
2022-10-09T21:47:21.628Z,0.95
2022-10-09T21:49:51.770Z,0.80
2022-10-09T21:52:21.849Z,0.80
2022-10-09T21:54:51.814Z,0.75
2022-10-09T21:57:21.760Z,0.90
2022-10-09T21:59:51.992Z,1.20
2022-10-09T22:02:21.953Z,0.80
2022-10-09T22:04:53.335Z,1.00
2022-10-09T22:07:23.343Z,0.90
2022-10-09T22:09:53.443Z,0.80
2022-10-09T22:12:23.466Z,0.80
2022-10-09T22:14:53.447Z,0.80
2022-10-09T22:17:26.638Z,0.90
2022-10-09T22:19:56.804Z,0.77
2022-10-09T22:22:27.963Z,0.80
2022-10-09T22:24:58.089Z,0.80
2022-10-09T22:27:28.166Z,0.90
2022-10-09T22:29:58.317Z,0.82
2022-10-09T22:32:28.602Z,0.73
2022-10-09T22:34:58.635Z,0.90
2022-10-09T22:37:28.715Z,1.00
2022-10-09T22:39:58.666Z,0.98
2022-10-09T22:42:28.824Z,0.95
2022-10-09T22:44:59.088Z,0.73
2022-10-09T22:47:29.963Z,0.77
2022-10-09T22:50:00.096Z,0.80
2022-10-09T22:52:30.335Z,0.70
2022-10-09T22:55:02.322Z,0.90
2022-10-09T22:57:32.303Z,0.70
2022-10-09T23:00:02.178Z,0.70
2022-10-09T23:02:32.217Z,0.90
2022-10-09T23:05:02.315Z,0.80
2022-10-09T23:07:32.268Z,0.77
2022-10-09T23:10:02.311Z,0.95
2022-10-09T23:12:32.303Z,0.73
